createdAt,value
2023-03-26T00:04:10.600Z,101.34448160535118
2023-03-26T00:10:31.225Z,125.63210702341136
2023-03-26T00:16:54.370Z,104.61204013377926
2023-03-26T00:24:11.308Z,87.36789297658864
2023-03-26T00:30:31.068Z,106.43478260869566
2023-03-26T00:36:51.209Z,110.80602006688963
2023-03-26T00:43:13.866Z,110.27424749163879
2023-03-26T00:49:33.648Z,99.92642140468227
2023-03-26T00:55:54.288Z,91.51839464882943
2023-03-26T01:02:15.498Z,91.82943143812709
2023-03-26T01:08:36.215Z,82.10367892976589
2023-03-26T01:14:56.958Z,89.56187290969899
2023-03-26T01:21:17.473Z,73.05685618729098
2023-03-26T01:27:38.589Z,79.33444816053512
2023-03-26T01:33:58.334Z,84.18394648829431
2023-03-26T01:40:19.823Z,78.48160535117057
2023-03-26T01:46:40.897Z,84.89297658862876
2023-03-26T01:53:02.934Z,94.81270903010034
2023-03-26T01:59:23.351Z,97.79264214046823
2023-03-26T02:05:42.163Z,108.96655518394648
2023-03-26T02:12:02.930Z,110.89632107023411
2023-03-26T02:19:55.071Z,104.96989966555184
2023-03-26T02:26:16.085Z,94.79264214046823
2023-03-26T02:32:37.313Z,92.54180602006689
2023-03-26T02:38:57.368Z,95.79264214046823
2023-03-26T02:46:03.811Z,106.01672240802675
2023-03-26T02:52:24.940Z,97.14715719063545
2023-03-26T02:58:45.871Z,111.50836120401338
2023-03-26T03:09:28.957Z,111.25418060200668
2023-03-26T03:15:48.886Z,107.98327759197325
2023-03-26T03:22:08.310Z,100.43812709030101
2023-03-26T03:28:30.296Z,103.45819397993311
2023-03-26T03:34:51.451Z,98.53177257525084
2023-03-26T03:46:44.597Z,104.62207357859532
2023-03-26T03:53:06.319Z,98.9799331103679
2023-03-26T03:59:29.173Z,97.76923076923077
2023-03-26T04:05:49.343Z,90.31772575250837
2023-03-26T04:13:05.799Z,94.63879598662207
2023-03-26T04:19:26.476Z,94.49498327759197
2023-03-26T04:25:46.934Z,98.50167224080268
2023-03-26T04:32:07.060Z,82.47157190635451
2023-03-26T04:39:18.884Z,81.54849498327759
2023-03-26T04:45:38.343Z,72.54180602006689
2023-03-26T04:51:57.940Z,78.03010033444816
2023-03-26T04:58:18.180Z,93.52508361204013
2023-03-26T05:09:31.592Z,73.3076923076923
2023-03-26T05:15:52.181Z,73.8628762541806
2023-03-26T05:22:14.574Z,75.03678929765886
2023-03-26T05:28:33.988Z,68.20066889632108
2023-03-26T05:34:55.341Z,59.12709030100334
2023-03-26T05:41:17.521Z,60.819397993311036
2023-03-26T05:47:41.951Z,61.03010033444816
2023-03-26T05:54:07.825Z,59.83946488294314
2023-03-26T06:00:32.251Z,89.72909698996655
2023-03-26T06:08:29.484Z,71.15384615384616
2023-03-26T06:14:52.993Z,68.6923076923077
2023-03-26T06:27:40.382Z,76.68561872909699
2023-03-26T06:40:16.032Z,81.74916387959867
2023-03-26T06:46:41.061Z,97.79598662207358
2023-03-26T06:57:03.438Z,84.93979933110369
2023-03-26T07:04:14.384Z,93.19732441471572
2023-03-26T07:10:37.070Z,84.04013377926421
2023-03-26T07:32:27.564Z,84.05351170568562
2023-03-26T07:38:50.695Z,83.55183946488295
2023-03-26T07:45:38.015Z,78.86622073578596
2023-03-26T07:51:59.294Z,110.82943143812709
2023-03-26T07:58:20.669Z,110.33110367892976
2023-03-26T08:04:41.980Z,99.17725752508362
2023-03-26T08:12:28.943Z,95.35117056856187
2023-03-26T08:23:50.681Z,109.72240802675586
2023-03-26T08:32:07.718Z,114.62876254180603
2023-03-26T08:38:29.348Z,115.32107023411372
2023-03-26T08:44:50.268Z,118.75585284280936
2023-03-26T08:53:56.421Z,119.07692307692308
2023-03-26T09:00:28.696Z,116.40468227424749
2023-03-26T09:06:52.192Z,108.84615384615384
2023-03-26T09:16:24.355Z,146.3210702341137
2023-03-26T09:22:46.221Z,109.5886287625418
2023-03-26T09:29:11.923Z,121.01672240802675
2023-03-26T09:40:20.131Z,117.32775919732441
2023-03-26T09:46:46.192Z,134.9665551839465
2023-03-26T09:53:07.779Z,110.8695652173913
2023-03-26T09:59:28.639Z,101.09698996655518
2023-03-26T10:05:50.060Z,107.46153846153847
2023-03-26T10:12:10.981Z,127.9799331103679
2023-03-26T10:18:32.016Z,128.77591973244148
2023-03-26T10:24:53.145Z,102.12040133779264
2023-03-26T10:31:15.016Z,111.83946488294315
2023-03-26T10:37:36.337Z,147.85284280936455
2023-03-26T10:44:07.273Z,150.92307692307693
2023-03-26T10:54:24.929Z,145.1571906354515
2023-03-26T11:01:16.180Z,148.66889632107024
2023-03-26T11:07:37.982Z,148.51170568561872
2023-03-26T11:13:59.495Z,143.69230769230768
2023-03-26T11:20:21.231Z,158.15384615384616
2023-03-26T11:26:43.282Z,151.1571906354515
2023-03-26T11:34:05.349Z,158.6722408026756
2023-03-26T11:41:59.875Z,135.66555183946488
2023-03-26T11:48:21.480Z,130.71571906354515
2023-03-26T11:54:43.185Z,142.54849498327758
2023-03-26T12:01:06.182Z,179.30434782608697
2023-03-26T12:07:27.526Z,213.63879598662209
2023-03-26T12:13:49.030Z,161.1705685618729
2023-03-26T12:20:10.331Z,158.52173913043478
2023-03-26T12:31:34.880Z,200.1571906354515
2023-03-26T12:37:56.033Z,177.19397993311037
2023-03-26T12:44:47.303Z,169.26421404682273
2023-03-26T12:51:18.634Z,180.1705685618729
2023-03-26T13:04:19.166Z,156.4180602006689
2023-03-26T13:10:40.746Z,174.93979933110367
2023-03-26T13:17:02.195Z,202.31772575250835
2023-03-26T13:25:27.749Z,151.6153846153846
2023-03-26T13:31:49.372Z,163.96321070234114
2023-03-26T13:38:10.778Z,141.7056856187291
2023-03-26T13:44:32.351Z,153.08695652173913
2023-03-26T13:55:28.227Z,162.11371237458195
2023-03-26T14:02:53.262Z,162.1505016722408
2023-03-26T14:09:15.018Z,119.81605351170569
2023-03-26T14:18:00.723Z,126.51505016722408
2023-03-26T14:24:22.086Z,118.04013377926421
2023-03-26T14:30:44.044Z,132.94314381270902
2023-03-26T14:37:05.617Z,104.44816053511705
2023-03-26T14:43:27.299Z,121.98996655518394
2023-03-26T14:49:48.489Z,96.74581939799332
2023-03-26T14:56:10.020Z,88.80267558528428
2023-03-26T15:02:31.930Z,86.68561872909699
2023-03-26T15:08:53.512Z,98.94648829431438
2023-03-26T15:15:15.147Z,77.33444816053512
2023-03-26T15:27:40.389Z,82.62207357859532
2023-03-26T15:34:02.535Z,163.25083612040135
2023-03-26T15:40:23.880Z,193.66555183946488
2023-03-26T16:03:27.116Z,100.03344481605352
2023-03-26T16:09:48.032Z,84.82943143812709
2023-03-26T16:16:09.041Z,77.11036789297658
2023-03-26T16:22:30.249Z,83.09698996655518
2023-03-26T16:28:51.111Z,88.8628762541806
2023-03-26T16:35:12.456Z,159.59866220735785
2023-03-26T16:46:33.437Z,136.80267558528428
2023-03-26T16:52:54.481Z,125.83277591973244
2023-03-26T16:59:15.908Z,113.11036789297658
2023-03-26T17:05:37.574Z,119.90635451505017
2023-03-26T17:12:00.556Z,133.22408026755852
2023-03-26T17:18:25.217Z,161.49163879598663
2023-03-26T17:30:33.885Z,194.80936454849498
2023-03-26T17:36:55.614Z,225.03678929765886
2023-03-26T17:44:21.632Z,148.93979933110367
2023-03-26T17:50:40.986Z,98.53846153846153
2023-03-26T17:57:03.050Z,93.95652173913044
2023-03-26T18:03:23.887Z,142.61204013377926
2023-03-26T18:09:42.962Z,156.52508361204013
2023-03-26T18:22:16.842Z,175.79933110367892
2023-03-26T18:28:40.063Z,164.49163879598663
2023-03-26T18:35:00.781Z,163.314381270903
2023-03-26T18:41:21.295Z,150.89966555183946
2023-03-26T18:47:41.709Z,154.25752508361205
2023-03-26T18:54:02.373Z,146.76254180602007
2023-03-26T19:05:30.386Z,134.65886287625418
2023-03-26T19:11:50.714Z,134.55518394648828
2023-03-26T19:18:11.772Z,117.21404682274247
2023-03-26T19:24:32.016Z,111.84949832775919
2023-03-26T19:30:54.344Z,99.56521739130434
2023-03-26T19:37:14.297Z,98.52508361204013
2023-03-26T19:43:34.291Z,81.78595317725753
2023-03-26T19:49:53.700Z,98.46153846153847
2023-03-26T19:59:17.573Z,92.50836120401338
2023-03-26T20:07:48.430Z,123.87959866220736
2023-03-26T20:14:07.014Z,86.6086956521739
2023-03-26T20:20:27.013Z,93.84615384615384
2023-03-26T20:28:47.470Z,91.19397993311037
2023-03-26T20:35:08.241Z,174.3846153846154
2023-03-26T20:41:29.238Z,193.18729096989966
2023-03-26T20:49:27.010Z,127.53846153846153
2023-03-26T21:05:08.257Z,124.3076923076923
2023-03-26T21:14:42.498Z,132.64548494983276
2023-03-26T21:21:14.099Z,96.49832775919732
2023-03-26T21:27:41.291Z,122.77257525083613
2023-03-26T21:34:00.010Z,103.55852842809365
2023-03-26T21:42:49.661Z,186.8628762541806
2023-03-26T21:58:39.389Z,81.09030100334448
2023-03-26T22:04:58.297Z,68.98996655518394
2023-03-26T22:11:17.217Z,68.34448160535118
2023-03-26T22:21:17.244Z,74.66220735785953
2023-03-26T22:27:44.138Z,73.59197324414716
2023-03-26T22:34:04.259Z,67.31438127090301
2023-03-26T22:40:22.855Z,64.19732441471572
2023-03-26T22:50:15.375Z,66.11036789297658
2023-03-26T22:56:35.729Z,76.01003344481606
2023-03-26T23:07:15.444Z,64.123745819398
2023-03-26T23:13:35.646Z,66.92976588628763
2023-03-26T23:19:54.360Z,67.94983277591973
2023-03-26T23:26:13.034Z,66.09698996655518
2023-03-26T23:33:16.762Z,71.47826086956522
2023-03-26T23:43:00.688Z,59.531772575250834
2023-03-26T23:54:41.174Z,62.25752508361204
